Koyukuk Airport


Codes: PFKU/KYU
Name: Koyukuk Airport
City: Koyukuk
Country: United States
Elevation: 149 ft.

Photos at Koyukuk Airport


   Photos courtesy of SpottingLog. You can add your own sightings and photos by signing up for a free trial today.



No photos found.

Weather at Koyukuk Airport


Time (UTC)DescriptionTempratureWindCloud coverageVisibilityPressureHumidity
25-Jun-2024 12:00Few Clouds11°C4 mph, N19%10000m1013hPa64%
25-Jun-2024 15:00Scattered Clouds12°C2 mph, N37%10000m1013hPa61%
25-Jun-2024 18:00Broken Clouds15°C2 mph, NE60%10000m1013hPa52%
25-Jun-2024 21:00Few Clouds23°C4 mph, S12%10000m1012hPa42%
26-Jun-2024 00:00Scattered Clouds22°C7 mph, S40%10000m1012hPa49%
26-Jun-2024 03:00Overcast Clouds23°C9 mph, SW100%10000m1011hPa43%
26-Jun-2024 06:00Overcast Clouds21°C2 mph, S99%10000m1011hPa56%
26-Jun-2024 09:00Overcast Clouds16°C2 mph, SW100%10000m1012hPa74%
26-Jun-2024 12:00Overcast Clouds14°C2 mph, W100%10000m1012hPa81%
26-Jun-2024 15:00Overcast Clouds16°C0 mph, SW100%10000m1012hPa69%
26-Jun-2024 18:00Overcast Clouds21°C4 mph, SW87%10000m1011hPa46%
26-Jun-2024 21:00Few Clouds25°C2 mph, E15%10000m1010hPa39%
27-Jun-2024 00:00Clear Sky26°C4 mph, E7%10000m1009hPa39%
27-Jun-2024 03:00Light Rain23°C2 mph, S23%10000m1007hPa58%
27-Jun-2024 06:00Light Rain22°C4 mph, SW25%10000m1006hPa66%
27-Jun-2024 09:00Light Rain16°C4 mph, W2%10000m1007hPa87%
27-Jun-2024 12:00Clear Sky14°C4 mph, SW2%10000m1007hPa93%
27-Jun-2024 15:00Few Clouds14°C9 mph, SW19%10000m1007hPa86%
27-Jun-2024 18:00Light Rain18°C9 mph, SW37%10000m1008hPa65%
27-Jun-2024 21:00Overcast Clouds21°C9 mph, SW99%10000m1008hPa44%
28-Jun-2024 00:00Overcast Clouds23°C9 mph, SW100%10000m1007hPa36%
28-Jun-2024 03:00Overcast Clouds22°C11 mph, SW91%10000m1007hPa38%
28-Jun-2024 06:00Overcast Clouds19°C9 mph, SW92%10000m1008hPa51%
28-Jun-2024 09:00Broken Clouds14°C4 mph, SW77%10000m1008hPa69%
28-Jun-2024 12:00Broken Clouds12°C4 mph, SW81%10000m1009hPa75%
28-Jun-2024 15:00Overcast Clouds14°C4 mph, SW100%10000m1010hPa68%
28-Jun-2024 18:00Overcast Clouds16°C4 mph, S99%10000m1010hPa61%
28-Jun-2024 21:00Overcast Clouds20°C7 mph, SW95%10000m1010hPa44%
29-Jun-2024 00:00Overcast Clouds21°C7 mph, SW95%10000m1010hPa42%
29-Jun-2024 03:00Overcast Clouds21°C4 mph, S93%10000m1009hPa42%
29-Jun-2024 06:00Overcast Clouds18°C2 mph, SW94%10000m1009hPa55%
29-Jun-2024 09:00Overcast Clouds16°C4 mph, N100%10000m1010hPa63%
29-Jun-2024 12:00Overcast Clouds14°C2 mph, N96%10000m1010hPa70%
29-Jun-2024 15:00Scattered Clouds15°C2 mph, N47%10000m1010hPa67%
29-Jun-2024 18:00Scattered Clouds20°C2 mph, NE33%10000m1010hPa47%
29-Jun-2024 21:00Broken Clouds23°C4 mph, NE54%10000m1009hPa35%
30-Jun-2024 00:00Broken Clouds24°C4 mph, NE71%10000m1008hPa33%
30-Jun-2024 03:00Overcast Clouds23°C7 mph, NE100%10000m1007hPa36%
30-Jun-2024 06:00Overcast Clouds21°C7 mph, NE92%10000m1007hPa47%
30-Jun-2024 09:00Scattered Clouds15°C4 mph, N37%10000m1008hPa66%